WetterOnline ( https://www.wetteronline.ch )

Wetter aktuell Ulm

Aktuelles Wetter: Ulm-Mähringen (592m)

6-stündlich | Neueste Meldungen
Ortszeit Temperatur Wetter
Fr, 26.02. 13:00 15.0° C wolkenlos
Fr, 26.02. 7:00 2.6° C wolkenlos
Fr, 26.02. 1:00 3.0° C wolkenlos
Do, 25.02. 19:00 11.0° C wolkenlos
Do, 25.02. 13:00 16.2° C wolkenlos
Do, 25.02. 7:00 0.2° C wolkenlos
Do, 25.02. 1:00 3.2° C wolkenlos
Mi, 24.02. 19:00 12.5° C wolkenlos
Ortszeit Temperatur Wetter
Fr, 26.02. 14:00 14.4° C wolkig
Fr, 26.02. 13:50 14.4° C wolkig
Fr, 26.02. 13:40 14.4° C bewölkt
Fr, 26.02. 13:30 14.8° C leicht bewölkt
Fr, 26.02. 13:20 14.8° C leicht bewölkt
Fr, 26.02. 13:10 15.2° C wolkenlos
Fr, 26.02. 13:00 15.0° C wolkenlos
Fr, 26.02. 12:30 14.5° C fast wolkenlos
Fr, 26.02. 12:00 13.8° C wolkenlos
Fr, 26.02. 11:30 13.3° C wolkenlos
Fr, 26.02. 11:00 11.7° C wolkenlos
Ortszeit Relative Feuchte Sichtweite
Fr, 26.02. 13:00 46% 29 km
Fr, 26.02. 7:00 74% 25 km
Fr, 26.02. 1:00 86% 24 km
Do, 25.02. 19:00 59% 25 km
Do, 25.02. 13:00 48% 22 km
Do, 25.02. 7:00 97% 11 km
Do, 25.02. 1:00 97% 15 km
Mi, 24.02. 19:00 63% 25 km
Ortszeit Relative Feuchte Sichtweite
Fr, 26.02. 14:00 46% 26 km
Fr, 26.02. 13:50 46% -
Fr, 26.02. 13:40 46% -
Fr, 26.02. 13:30 45% 28 km
Fr, 26.02. 13:20 45% -
Fr, 26.02. 13:10 48% -
Fr, 26.02. 13:00 46% 29 km
Fr, 26.02. 12:30 43% 22 km
Fr, 26.02. 12:00 46% 26 km
Fr, 26.02. 11:30 45% 30 km
Fr, 26.02. 11:00 48% 26 km
Ortszeit Niederschlagsmenge Niederschlagsart
Fr, 26.02. 13:00 0.0 l/m2 in 6 Std. -
Fr, 26.02. 7:00 0.0 l/m2 in 12 Std. -
Fr, 26.02. 1:00 0.0 l/m2 in 6 Std. -
Do, 25.02. 19:00 0.0 l/m2 in 12 Std. -
Do, 25.02. 13:00 0.0 l/m2 in 6 Std. -
Do, 25.02. 7:00 0.0 l/m2 in 12 Std. -
Do, 25.02. 1:00 0.0 l/m2 in 6 Std. -
Mi, 24.02. 19:00 0.0 l/m2 in 12 Std. -
Ortszeit Niederschlagsmenge Niederschlagsart
Fr, 26.02. 14:00 0.0 l/m2 in 1 Std. -
Fr, 26.02. 13:50 keine Meldung -
Fr, 26.02. 13:40 keine Meldung -
Fr, 26.02. 13:30 0.0 l/m2 in 1 Std. -
Fr, 26.02. 13:20 keine Meldung -
Fr, 26.02. 13:10 keine Meldung -
Fr, 26.02. 13:00 0.0 l/m2 in 1 Std. -
Fr, 26.02. 12:30 0.0 l/m2 in 1 Std. -
Fr, 26.02. 12:00 0.0 l/m2 in 1 Std. -
Fr, 26.02. 11:30 0.0 l/m2 in 1 Std. -
Fr, 26.02. 11:00 0.0 l/m2 in 1 Std. -
Ortszeit Stärke Spitze Richtung
km/h Bft. km/h Grad Sektor
Fr, 26.02. 13:00 7 2 14 150° SO
Fr, 26.02. 7:00 4 1 7 220° SW
Fr, 26.02. 1:00 6 1 11 260° W
Do, 25.02. 19:00 4 1 18 260° W
Do, 25.02. 13:00 7 2 14 140° SO
Do, 25.02. 7:00 4 1 7 280° W
Do, 25.02. 1:00 4 1 11 270° W
Mi, 24.02. 19:00 7 2 17 60° NO
Ortszeit Stärke Spitze Richtung
km/h Bft. km/h Grad Sektor
Fr, 26.02. 14:00 7 2 14 90° O
Fr, 26.02. 13:50 7 2 - 90° O
Fr, 26.02. 13:40 7 2 - 90° O
Fr, 26.02. 13:30 9 2 13 120° SO
Fr, 26.02. 13:20 9 2 - 120° SO
Fr, 26.02. 13:10 7 2 - 110° O
Fr, 26.02. 13:00 7 2 14 150° SO
Fr, 26.02. 12:30 7 2 11 160° S
Fr, 26.02. 12:00 9 2 13 150° SO
Fr, 26.02. 11:30 7 2 13 190° S
Fr, 26.02. 11:00 11 2 14 190° S
Ortszeit Untergrenze Bedeckung Gattung
total tief tief mittel hoch
Fr, 26.02. 13:00 - 0/8 0/8 - - -
Fr, 26.02. 7:00 - 0/8 0/8 - - -
Fr, 26.02. 1:00 - 0/8 0/8 - - -
Do, 25.02. 19:00 - 0/8 0/8 - - -
Do, 25.02. 13:00 - 0/8 0/8 - - -
Do, 25.02. 7:00 - 0/8 0/8 - - -
Do, 25.02. 1:00 - 0/8 0/8 - - -
Mi, 24.02. 19:00 - 0/8 0/8 - - -
Ortszeit Bedeckungsgrad in Achtel und Wolkenuntergrenze
Fr, 26.02. 14:00 1(1500m) 8(6000m) 8(6600m)
Fr, 26.02. 13:50 1(1500m) 8(6000m) 8(6600m)
Fr, 26.02. 13:40 2(4500m) 6(5400m) 7(6300m)
Fr, 26.02. 13:30 3(4500m) 3(6300m) 6(6300m)
Fr, 26.02. 13:20 3(4500m) 3(6300m)
Fr, 26.02. 13:10 keine Wolken
Fr, 26.02. 13:00 keine Wolken
Fr, 26.02. 12:30 1(3600m)
Fr, 26.02. 12:00 keine Wolken
Fr, 26.02. 11:30 keine Wolken
Fr, 26.02. 11:00 keine Wolken
Ortszeit Luftdruck NN (hPa) Tendenz (hPa in 3 Std.)
Fr, 26.02. 13:00 1028 - 0,9
Fr, 26.02. 7:00 1032 - 0,1
Fr, 26.02. 1:00 1032 + 0,3
Do, 25.02. 19:00 1029 + 0,4
Do, 25.02. 13:00 1029 - 0,8
Do, 25.02. 7:00 1033 - 0,3
Do, 25.02. 1:00 1033 - 0,7
Mi, 24.02. 19:00 1032 - 0,2
Ortszeit Luftdruck NN (hPa) Tendenz (hPa in 3 Std.)
Fr, 26.02. 14:00 1028 - 1,2
Fr, 26.02. 13:50 1028 keine Meldung
Fr, 26.02. 13:40 1028 keine Meldung
Fr, 26.02. 13:30 1028 - 1,0
Fr, 26.02. 13:20 1028 keine Meldung
Fr, 26.02. 13:10 1028 keine Meldung
Fr, 26.02. 13:00 1028 - 0,9
Fr, 26.02. 12:30 1029 - 0,5
Fr, 26.02. 12:00 1029 - 0,5
Fr, 26.02. 11:30 1029 - 0,2
Fr, 26.02. 11:00 1030 0,0
Ortszeit Schneehöhe (cm)
Fr, 26.02. 13:00 0
Fr, 26.02. 7:00 0
Fr, 26.02. 1:00 0
Do, 25.02. 19:00 0
Do, 25.02. 13:00 0
Do, 25.02. 7:00 0
Do, 25.02. 1:00 0
Mi, 24.02. 19:00 0
Ortszeit Schneehöhe (cm)
Fr, 26.02. 14:00 0
Fr, 26.02. 13:50 0
Fr, 26.02. 13:40 0
Fr, 26.02. 13:30 0
Fr, 26.02. 13:20 0
Fr, 26.02. 13:10 0
Fr, 26.02. 13:00 0
Fr, 26.02. 12:30 0
Fr, 26.02. 12:00 0
Fr, 26.02. 11:30 0
Fr, 26.02. 11:00 0
Link zu dieser Seite / Seite empfehlen

Das Wetter in ...